sensor_id;sensor_type;location;lat;lon;timestamp;temperature;humidity
1800;DHT22;919;48.274;12.292;2022-08-27T00:00:09;20.10;99.90
1800;DHT22;919;48.274;12.292;2022-08-27T00:02:39;20.00;99.90
1800;DHT22;919;48.274;12.292;2022-08-27T00:05:06;20.00;99.90
1800;DHT22;919;48.274;12.292;2022-08-27T00:07:33;19.90;99.90
1800;DHT22;919;48.274;12.292;2022-08-27T00:09:59;19.90;99.90
1800;DHT22;919;48.274;12.292;2022-08-27T00:12:26;19.80;99.90
1800;DHT22;919;48.274;12.292;2022-08-27T00:14:56;19.80;99.90
1800;DHT22;919;48.274;12.292;2022-08-27T00:17:23;19.80;99.90
1800;DHT22;919;48.274;12.292;2022-08-27T00:19:49;19.70;99.90
1800;DHT22;919;48.274;12.292;2022-08-27T00:22:16;19.60;99.90
1800;DHT22;919;48.274;12.292;2022-08-27T00:24:43;19.60;99.90
1800;DHT22;919;48.274;12.292;2022-08-27T00:27:09;19.60;99.90
1800;DHT22;919;48.274;12.292;2022-08-27T00:29:36;19.60;99.90
1800;DHT22;919;48.274;12.292;2022-08-27T00:32:04;19.60;99.90
1800;DHT22;919;48.274;12.292;2022-08-27T00:34:33;19.60;99.90
1800;DHT22;919;48.274;12.292;2022-08-27T00:37:00;19.60;99.90
1800;DHT22;919;48.274;12.292;2022-08-27T00:39:27;19.50;99.90
1800;DHT22;919;48.274;12.292;2022-08-27T00:41:54;19.50;99.90
1800;DHT22;919;48.274;12.292;2022-08-27T00:44:21;19.50;99.90
1800;DHT22;919;48.274;12.292;2022-08-27T00:46:50;19.60;99.90
1800;DHT22;919;48.274;12.292;2022-08-27T00:49:22;19.50;99.90
1800;DHT22;919;48.274;12.292;2022-08-27T00:51:52;19.50;99.90
1800;DHT22;919;48.274;12.292;2022-08-27T00:54:20;19.50;99.90
1800;DHT22;919;48.274;12.292;2022-08-27T00:56:47;19.40;99.90
1800;DHT22;919;48.274;12.292;2022-08-27T00:59:16;19.40;99.90
1800;DHT22;919;48.274;12.292;2022-08-27T01:01:44;19.30;99.90
1800;DHT22;919;48.274;12.292;2022-08-27T01:04:27;19.30;99.90
1800;DHT22;919;48.274;12.292;2022-08-27T01:06:55;19.30;99.90
1800;DHT22;919;48.274;12.292;2022-08-27T01:09:22;19.10;99.90
1800;DHT22;919;48.274;12.292;2022-08-27T01:11:49;19.00;99.90
1800;DHT22;919;48.274;12.292;2022-08-27T01:14:17;19.00;99.90
1800;DHT22;919;48.274;12.292;2022-08-27T01:16:48;19.00;99.90
1800;DHT22;919;48.274;12.292;2022-08-27T01:19:21;18.90;99.90
1800;DHT22;919;48.274;12.292;2022-08-27T01:21:56;18.90;99.90
1800;DHT22;919;48.274;12.292;2022-08-27T01:24:32;18.90;99.90
1800;DHT22;919;48.274;12.292;2022-08-27T01:27:01;18.80;99.90
1800;DHT22;919;48.274;12.292;2022-08-27T01:29:29;18.80;99.90
1800;DHT22;919;48.274;12.292;2022-08-27T01:31:59;18.80;99.90
1800;DHT22;919;48.274;12.292;2022-08-27T01:34:31;18.80;99.90
1800;DHT22;919;48.274;12.292;2022-08-27T01:36:57;18.80;99.90
1800;DHT22;919;48.274;12.292;2022-08-27T01:39:24;18.80;99.90
1800;DHT22;919;48.274;12.292;2022-08-27T01:41:52;18.70;99.90
1800;DHT22;919;48.274;12.292;2022-08-27T01:44:19;18.70;99.90
1800;DHT22;919;48.274;12.292;2022-08-27T01:46:45;18.70;99.90
1800;DHT22;919;48.274;12.292;2022-08-27T01:49:12;18.60;99.90
1800;DHT22;919;48.274;12.292;2022-08-27T01:51:39;18.70;99.90
1800;DHT22;919;48.274;12.292;2022-08-27T01:54:06;18.70;99.90
1800;DHT22;919;48.274;12.292;2022-08-27T01:56:32;18.80;99.90
1800;DHT22;919;48.274;12.292;2022-08-27T01:59:00;18.70;99.90
1800;DHT22;919;48.274;12.292;2022-08-27T02:01:27;18.80;99.90
1800;DHT22;919;48.274;12.292;2022-08-27T02:03:54;18.70;99.90
1800;DHT22;919;48.274;12.292;2022-08-27T02:06:20;18.70;99.90
1800;DHT22;919;48.274;12.292;2022-08-27T02:08:47;18.70;99.90
1800;DHT22;919;48.274;12.292;2022-08-27T02:11:14;18.70;99.90
1800;DHT22;919;48.274;12.292;2022-08-27T02:13:40;18.80;99.90
1800;DHT22;919;48.274;12.292;2022-08-27T02:16:08;18.80;99.90
1800;DHT22;919;48.274;12.292;2022-08-27T02:18:35;18.90;99.90
1800;DHT22;919;48.274;12.292;2022-08-27T02:21:03;18.90;99.90
1800;DHT22;919;48.274;12.292;2022-08-27T02:23:30;19.00;99.90
1800;DHT22;919;48.274;12.292;2022-08-27T02:25:56;19.00;99.90
1800;DHT22;919;48.274;12.292;2022-08-27T02:28:23;19.00;99.90
1800;DHT22;919;48.274;12.292;2022-08-27T02:30:50;19.10;99.90
1800;DHT22;919;48.274;12.292;2022-08-27T02:33:18;19.10;99.90
1800;DHT22;919;48.274;12.292;2022-08-27T02:35:45;19.10;99.90
1800;DHT22;919;48.274;12.292;2022-08-27T02:38:12;19.10;99.90
1800;DHT22;919;48.274;12.292;2022-08-27T02:40:39;19.10;99.90
1800;DHT22;919;48.274;12.292;2022-08-27T02:43:05;19.10;99.90
1800;DHT22;919;48.274;12.292;2022-08-27T02:45:32;19.10;99.90
1800;DHT22;919;48.274;12.292;2022-08-27T02:47:59;19.10;99.90
1800;DHT22;919;48.274;12.292;2022-08-27T02:50:27;19.10;99.90
1800;DHT22;919;48.274;12.292;2022-08-27T02:52:53;19.10;99.90
1800;DHT22;919;48.274;12.292;2022-08-27T02:55:20;19.10;99.90
1800;DHT22;919;48.274;12.292;2022-08-27T02:57:47;19.10;99.90
1800;DHT22;919;48.274;12.292;2022-08-27T03:00:17;19.10;99.90
1800;DHT22;919;48.274;12.292;2022-08-27T03:02:44;19.20;99.90
1800;DHT22;919;48.274;12.292;2022-08-27T03:05:12;19.20;99.90
1800;DHT22;919;48.274;12.292;2022-08-27T03:07:40;19.20;99.90
1800;DHT22;919;48.274;12.292;2022-08-27T03:10:08;19.10;99.90
1800;DHT22;919;48.274;12.292;2022-08-27T03:12:36;19.10;99.90
1800;DHT22;919;48.274;12.292;2022-08-27T03:15:03;19.10;99.90
1800;DHT22;919;48.274;12.292;2022-08-27T03:17:30;19.00;99.90
1800;DHT22;919;48.274;12.292;2022-08-27T03:20:14;19.00;99.90
1800;DHT22;919;48.274;12.292;2022-08-27T03:22:42;19.00;99.90
1800;DHT22;919;48.274;12.292;2022-08-27T03:25:09;19.00;99.90
1800;DHT22;919;48.274;12.292;2022-08-27T03:27:36;18.90;99.90
1800;DHT22;919;48.274;12.292;2022-08-27T03:30:03;18.90;99.90
1800;DHT22;919;48.274;12.292;2022-08-27T03:32:30;18.90;99.90
1800;DHT22;919;48.274;12.292;2022-08-27T03:34:57;18.80;99.90
1800;DHT22;919;48.274;12.292;2022-08-27T03:37:24;18.80;99.90
1800;DHT22;919;48.274;12.292;2022-08-27T03:39:52;18.70;99.90
1800;DHT22;919;48.274;12.292;2022-08-27T03:42:19;18.70;99.90
1800;DHT22;919;48.274;12.292;2022-08-27T03:44:45;18.70;99.90
1800;DHT22;919;48.274;12.292;2022-08-27T03:47:12;18.70;99.90
1800;DHT22;919;48.274;12.292;2022-08-27T03:49:39;18.60;99.90
1800;DHT22;919;48.274;12.292;2022-08-27T03:52:07;18.60;99.90
1800;DHT22;919;48.274;12.292;2022-08-27T03:54:34;18.50;99.90
1800;DHT22;919;48.274;12.292;2022-08-27T03:57:03;18.50;99.90
1800;DHT22;919;48.274;12.292;2022-08-27T03:59:31;18.50;99.90
1800;DHT22;919;48.274;12.292;2022-08-27T04:01:58;18.50;99.90
1800;DHT22;919;48.274;12.292;2022-08-27T04:04:25;18.40;99.90
1800;DHT22;919;48.274;12.292;2022-08-27T04:06:52;18.30;99.90
1800;DHT22;919;48.274;12.292;2022-08-27T04:09:19;18.30;99.90
1800;DHT22;919;48.274;12.292;2022-08-27T04:11:46;18.20;99.90
1800;DHT22;919;48.274;12.292;2022-08-27T04:14:14;18.00;99.90
1800;DHT22;919;48.274;12.292;2022-08-27T04:16:41;17.90;99.90
1800;DHT22;919;48.274;12.292;2022-08-27T04:19:08;17.90;99.90
1800;DHT22;919;48.274;12.292;2022-08-27T04:21:37;17.80;99.90
1800;DHT22;919;48.274;12.292;2022-08-27T04:24:04;17.80;99.90
1800;DHT22;919;48.274;12.292;2022-08-27T04:26:31;17.80;99.90
1800;DHT22;919;48.274;12.292;2022-08-27T04:28:58;17.90;99.90
1800;DHT22;919;48.274;12.292;2022-08-27T04:31:26;18.00;99.90
1800;DHT22;919;48.274;12.292;2022-08-27T04:33:52;18.10;99.90
1800;DHT22;919;48.274;12.292;2022-08-27T04:36:19;18.20;99.90
1800;DHT22;919;48.274;12.292;2022-08-27T04:38:46;18.20;99.90
1800;DHT22;919;48.274;12.292;2022-08-27T04:41:13;18.30;99.90
1800;DHT22;919;48.274;12.292;2022-08-27T04:43:49;18.30;99.90
1800;DHT22;919;48.274;12.292;2022-08-27T04:46:20;18.40;99.90
1800;DHT22;919;48.274;12.292;2022-08-27T04:48:48;18.40;99.90
1800;DHT22;919;48.274;12.292;2022-08-27T04:51:15;18.50;99.90
1800;DHT22;919;48.274;12.292;2022-08-27T04:53:42;18.50;99.90
1800;DHT22;919;48.274;12.292;2022-08-27T04:56:12;18.60;99.90
1800;DHT22;919;48.274;12.292;2022-08-27T04:58:40;18.70;99.90
1800;DHT22;919;48.274;12.292;2022-08-27T05:01:07;18.70;99.90
1800;DHT22;919;48.274;12.292;2022-08-27T05:03:34;18.80;99.90
1800;DHT22;919;48.274;12.292;2022-08-27T05:06:04;18.80;99.90
1800;DHT22;919;48.274;12.292;2022-08-27T05:08:32;18.90;99.90
1800;DHT22;919;48.274;12.292;2022-08-27T05:10:59;19.00;99.90
1800;DHT22;919;48.274;12.292;2022-08-27T05:13:27;19.10;99.90
1800;DHT22;919;48.274;12.292;2022-08-27T05:15:57;19.20;99.90
1800;DHT22;919;48.274;12.292;2022-08-27T05:18:24;19.20;99.90
1800;DHT22;919;48.274;12.292;2022-08-27T05:20:52;19.20;99.90
1800;DHT22;919;48.274;12.292;2022-08-27T05:23:20;19.30;99.90
1800;DHT22;919;48.274;12.292;2022-08-27T05:25:48;19.30;99.90
1800;DHT22;919;48.274;12.292;2022-08-27T05:28:17;19.40;99.90
1800;DHT22;919;48.274;12.292;2022-08-27T05:30:48;19.40;99.90
1800;DHT22;919;48.274;12.292;2022-08-27T05:33:16;19.30;99.90
1800;DHT22;919;48.274;12.292;2022-08-27T05:35:46;19.40;99.90
1800;DHT22;919;48.274;12.292;2022-08-27T05:38:13;19.40;99.90
1800;DHT22;919;48.274;12.292;2022-08-27T05:40:42;19.40;99.90
1800;DHT22;919;48.274;12.292;2022-08-27T05:43:10;19.40;99.90
1800;DHT22;919;48.274;12.292;2022-08-27T05:45:40;19.40;99.90
1800;DHT22;919;48.274;12.292;2022-08-27T05:48:07;19.40;99.90
1800;DHT22;919;48.274;12.292;2022-08-27T05:50:36;19.40;99.90
1800;DHT22;919;48.274;12.292;2022-08-27T05:53:03;19.50;99.90
1800;DHT22;919;48.274;12.292;2022-08-27T05:55:35;19.50;99.90
1800;DHT22;919;48.274;12.292;2022-08-27T05:58:04;19.60;99.90
1800;DHT22;919;48.274;12.292;2022-08-27T06:00:30;19.60;99.90
1800;DHT22;919;48.274;12.292;2022-08-27T06:03:15;19.60;99.90
1800;DHT22;919;48.274;12.292;2022-08-27T06:05:41;19.70;99.90
1800;DHT22;919;48.274;12.292;2022-08-27T06:08:08;19.70;99.90
1800;DHT22;919;48.274;12.292;2022-08-27T06:10:39;19.70;99.90
1800;DHT22;919;48.274;12.292;2022-08-27T06:13:11;19.70;99.90
1800;DHT22;919;48.274;12.292;2022-08-27T06:15:38;19.70;99.90
1800;DHT22;919;48.274;12.292;2022-08-27T06:18:05;19.80;99.90
1800;DHT22;919;48.274;12.292;2022-08-27T06:20:31;19.70;99.90
1800;DHT22;919;48.274;12.292;2022-08-27T06:22:58;19.70;99.90
1800;DHT22;919;48.274;12.292;2022-08-27T06:25:25;19.70;99.90
1800;DHT22;919;48.274;12.292;2022-08-27T06:27:52;19.70;99.90
1800;DHT22;919;48.274;12.292;2022-08-27T06:30:20;19.70;99.90
1800;DHT22;919;48.274;12.292;2022-08-27T06:32:46;19.80;99.90
1800;DHT22;919;48.274;12.292;2022-08-27T06:35:13;19.80;99.90
1800;DHT22;919;48.274;12.292;2022-08-27T06:37:40;19.80;99.90
1800;DHT22;919;48.274;12.292;2022-08-27T06:40:08;19.80;99.90
1800;DHT22;919;48.274;12.292;2022-08-27T06:42:35;19.90;99.90
1800;DHT22;919;48.274;12.292;2022-08-27T06:45:03;20.00;99.90
1800;DHT22;919;48.274;12.292;2022-08-27T06:47:32;20.00;99.90
1800;DHT22;919;48.274;12.292;2022-08-27T06:49:58;20.00;99.90
1800;DHT22;919;48.274;12.292;2022-08-27T06:52:25;20.10;99.90
1800;DHT22;919;48.274;12.292;2022-08-27T06:54:52;20.10;99.90
1800;DHT22;919;48.274;12.292;2022-08-27T06:57:19;20.20;99.90
1800;DHT22;919;48.274;12.292;2022-08-27T06:59:49;20.30;99.90
1800;DHT22;919;48.274;12.292;2022-08-27T07:02:17;20.30;99.90
1800;DHT22;919;48.274;12.292;2022-08-27T07:04:45;20.40;99.90
1800;DHT22;919;48.274;12.292;2022-08-27T07:07:12;20.40;99.90
1800;DHT22;919;48.274;12.292;2022-08-27T07:09:39;20.50;99.90
1800;DHT22;919;48.274;12.292;2022-08-27T07:12:06;20.50;99.90
1800;DHT22;919;48.274;12.292;2022-08-27T07:14:33;20.60;99.90
1800;DHT22;919;48.274;12.292;2022-08-27T07:17:00;20.60;99.90
1800;DHT22;919;48.274;12.292;2022-08-27T07:19:27;20.60;99.90
1800;DHT22;919;48.274;12.292;2022-08-27T07:21:56;20.70;99.90
1800;DHT22;919;48.274;12.292;2022-08-27T07:24:23;20.80;99.90
1800;DHT22;919;48.274;12.292;2022-08-27T07:26:50;20.80;99.90
1800;DHT22;919;48.274;12.292;2022-08-27T07:29:17;20.90;99.90
1800;DHT22;919;48.274;12.292;2022-08-27T07:31:44;20.80;99.90
1800;DHT22;919;48.274;12.292;2022-08-27T07:34:11;20.90;99.90
1800;DHT22;919;48.274;12.292;2022-08-27T07:36:38;21.00;99.90
1800;DHT22;919;48.274;12.292;2022-08-27T07:39:07;21.00;99.90
1800;DHT22;919;48.274;12.292;2022-08-27T07:41:34;21.00;99.90
1800;DHT22;919;48.274;12.292;2022-08-27T07:44:23;21.00;99.90
1800;DHT22;919;48.274;12.292;2022-08-27T07:46:53;21.00;99.90
1800;DHT22;919;48.274;12.292;2022-08-27T07:49:20;21.20;99.90
1800;DHT22;919;48.274;12.292;2022-08-27T07:51:48;21.20;99.90
1800;DHT22;919;48.274;12.292;2022-08-27T07:54:16;21.20;99.90
1800;DHT22;919;48.274;12.292;2022-08-27T07:56:43;21.30;99.90
1800;DHT22;919;48.274;12.292;2022-08-27T07:59:10;21.30;99.90
1800;DHT22;919;48.274;12.292;2022-08-27T08:01:37;21.50;99.90
1800;DHT22;919;48.274;12.292;2022-08-27T08:04:06;21.60;99.90
1800;DHT22;919;48.274;12.292;2022-08-27T08:06:35;21.70;99.90
1800;DHT22;919;48.274;12.292;2022-08-27T08:09:03;21.70;99.90
1800;DHT22;919;48.274;12.292;2022-08-27T08:11:31;21.70;99.90
1800;DHT22;919;48.274;12.292;2022-08-27T08:13:59;21.80;99.90
1800;DHT22;919;48.274;12.292;2022-08-27T08:16:28;21.90;99.90
1800;DHT22;919;48.274;12.292;2022-08-27T08:18:55;22.00;99.90
1800;DHT22;919;48.274;12.292;2022-08-27T08:21:21;21.90;99.90
1800;DHT22;919;48.274;12.292;2022-08-27T08:23:48;22.00;99.90
1800;DHT22;919;48.274;12.292;2022-08-27T08:26:15;21.90;99.90
1800;DHT22;919;48.274;12.292;2022-08-27T08:28:43;21.90;99.90
1800;DHT22;919;48.274;12.292;2022-08-27T08:31:10;22.00;99.90
1800;DHT22;919;48.274;12.292;2022-08-27T08:33:37;22.00;99.90
1800;DHT22;919;48.274;12.292;2022-08-27T08:36:07;22.00;99.90
1800;DHT22;919;48.274;12.292;2022-08-27T08:38:35;22.10;99.90
1800;DHT22;919;48.274;12.292;2022-08-27T08:41:04;22.10;99.90
1800;DHT22;919;48.274;12.292;2022-08-27T08:43:34;22.20;99.90
1800;DHT22;919;48.274;12.292;2022-08-27T08:46:07;22.30;99.90
1800;DHT22;919;48.274;12.292;2022-08-27T08:48:36;22.20;99.90
1800;DHT22;919;48.274;12.292;2022-08-27T08:51:09;22.20;99.90
1800;DHT22;919;48.274;12.292;2022-08-27T08:53:44;22.10;99.90
1800;DHT22;919;48.274;12.292;2022-08-27T08:56:18;22.10;99.90
1800;DHT22;919;48.274;12.292;2022-08-27T08:58:48;22.10;99.90
1800;DHT22;919;48.274;12.292;2022-08-27T09:01:20;22.10;99.90
1800;DHT22;919;48.274;12.292;2022-08-27T09:03:51;22.00;99.90
1800;DHT22;919;48.274;12.292;2022-08-27T09:06:25;22.00;99.90
1800;DHT22;919;48.274;12.292;2022-08-27T09:08:54;22.10;99.90
1800;DHT22;919;48.274;12.292;2022-08-27T09:11:27;22.30;99.90
1800;DHT22;919;48.274;12.292;2022-08-27T09:13:57;22.60;99.90
1800;DHT22;919;48.274;12.292;2022-08-27T09:16:27;22.60;99.90
1800;DHT22;919;48.274;12.292;2022-08-27T09:18:54;22.70;99.90
1800;DHT22;919;48.274;12.292;2022-08-27T09:21:30;22.70;99.90
1800;DHT22;919;48.274;12.292;2022-08-27T09:24:05;22.70;99.90
1800;DHT22;919;48.274;12.292;2022-08-27T09:26:36;22.80;99.90
1800;DHT22;919;48.274;12.292;2022-08-27T09:29:06;23.00;99.90
1800;DHT22;919;48.274;12.292;2022-08-27T09:31:51;23.20;99.90
1800;DHT22;919;48.274;12.292;2022-08-27T09:34:18;23.50;99.90
1800;DHT22;919;48.274;12.292;2022-08-27T09:36:53;23.70;99.90
1800;DHT22;919;48.274;12.292;2022-08-27T09:39:39;23.90;99.90
1800;DHT22;919;48.274;12.292;2022-08-27T09:42:07;24.10;99.90
1800;DHT22;919;48.274;12.292;2022-08-27T09:44:45;24.10;99.90
1800;DHT22;919;48.274;12.292;2022-08-27T09:47:13;24.10;99.90
1800;DHT22;919;48.274;12.292;2022-08-27T09:49:41;24.00;99.90
1800;DHT22;919;48.274;12.292;2022-08-27T09:52:09;23.80;99.90
1800;DHT22;919;48.274;12.292;2022-08-27T09:54:45;23.70;99.90
1800;DHT22;919;48.274;12.292;2022-08-27T09:57:28;23.60;99.90
1800;DHT22;919;48.274;12.292;2022-08-27T09:59:57;23.60;99.90
1800;DHT22;919;48.274;12.292;2022-08-27T10:02:26;23.80;99.90
1800;DHT22;919;48.274;12.292;2022-08-27T10:04:55;24.00;99.90
1800;DHT22;919;48.274;12.292;2022-08-27T10:07:30;24.30;99.90
1800;DHT22;919;48.274;12.292;2022-08-27T10:10:03;24.30;99.90
1800;DHT22;919;48.274;12.292;2022-08-27T10:12:36;24.20;99.90
1800;DHT22;919;48.274;12.292;2022-08-27T10:15:05;24.10;99.90
1800;DHT22;919;48.274;12.292;2022-08-27T10:17:43;24.20;99.90
1800;DHT22;919;48.274;12.292;2022-08-27T10:20:16;24.40;99.90
1800;DHT22;919;48.274;12.292;2022-08-27T10:22:55;24.60;99.90
1800;DHT22;919;48.274;12.292;2022-08-27T10:25:31;24.40;99.90
1800;DHT22;919;48.274;12.292;2022-08-27T10:28:08;24.40;99.90
1800;DHT22;919;48.274;12.292;2022-08-27T10:30:49;24.40;99.90
1800;DHT22;919;48.274;12.292;2022-08-27T10:33:26;24.30;99.90
1800;DHT22;919;48.274;12.292;2022-08-27T10:36:00;24.30;99.90
1800;DHT22;919;48.274;12.292;2022-08-27T10:38:36;24.30;99.90
1800;DHT22;919;48.274;12.292;2022-08-27T10:41:11;24.40;99.90
1800;DHT22;919;48.274;12.292;2022-08-27T10:46:52;24.70;99.90
1800;DHT22;919;48.274;12.292;2022-08-27T10:49:27;24.70;99.90
1800;DHT22;919;48.274;12.292;2022-08-27T10:52:03;24.90;99.90
1800;DHT22;919;48.274;12.292;2022-08-27T10:54:37;25.00;99.90
1800;DHT22;919;48.274;12.292;2022-08-27T10:57:12;25.20;99.90
1800;DHT22;919;48.274;12.292;2022-08-27T10:59:47;25.40;99.90
1800;DHT22;919;48.274;12.292;2022-08-27T11:02:23;25.50;99.90
1800;DHT22;919;48.274;12.292;2022-08-27T11:04:56;25.40;99.90
1800;DHT22;919;48.274;12.292;2022-08-27T11:07:27;25.50;99.90
1800;DHT22;919;48.274;12.292;2022-08-27T11:09:58;25.30;99.90
1800;DHT22;919;48.274;12.292;2022-08-27T11:12:30;25.50;99.90
1800;DHT22;919;48.274;12.292;2022-08-27T11:14:59;25.70;99.90
1800;DHT22;919;48.274;12.292;2022-08-27T11:17:31;25.80;99.90
1800;DHT22;919;48.274;12.292;2022-08-27T11:20:05;25.80;99.90
1800;DHT22;919;48.274;12.292;2022-08-27T11:22:38;25.70;99.90
1800;DHT22;919;48.274;12.292;2022-08-27T11:25:13;25.80;99.90
1800;DHT22;919;48.274;12.292;2022-08-27T11:27:44;26.10;99.90
1800;DHT22;919;48.274;12.292;2022-08-27T11:30:18;26.30;99.90
1800;DHT22;919;48.274;12.292;2022-08-27T11:32:57;26.40;99.90
1800;DHT22;919;48.274;12.292;2022-08-27T11:35:34;26.60;99.90
1800;DHT22;919;48.274;12.292;2022-08-27T11:38:20;26.60;99.90
1800;DHT22;919;48.274;12.292;2022-08-27T11:41:09;26.50;99.90
1800;DHT22;919;48.274;12.292;2022-08-27T11:43:42;26.60;99.90
1800;DHT22;919;48.274;12.292;2022-08-27T11:46:10;26.60;99.90
1800;DHT22;919;48.274;12.292;2022-08-27T11:48:40;26.60;99.90
1800;DHT22;919;48.274;12.292;2022-08-27T11:51:12;26.80;99.90
1800;DHT22;919;48.274;12.292;2022-08-27T11:53:43;26.70;99.90
1800;DHT22;919;48.274;12.292;2022-08-27T11:56:35;26.90;99.90
1800;DHT22;919;48.274;12.292;2022-08-27T11:59:17;27.00;99.90
1800;DHT22;919;48.274;12.292;2022-08-27T12:01:47;27.20;99.90
1800;DHT22;919;48.274;12.292;2022-08-27T12:04:33;27.30;99.90
1800;DHT22;919;48.274;12.292;2022-08-27T12:07:04;27.20;99.90
1800;DHT22;919;48.274;12.292;2022-08-27T12:09:52;27.00;99.90
1800;DHT22;919;48.274;12.292;2022-08-27T12:12:23;27.00;99.90
1800;DHT22;919;48.274;12.292;2022-08-27T12:15:01;26.80;99.90
1800;DHT22;919;48.274;12.292;2022-08-27T12:17:36;26.60;99.90
1800;DHT22;919;48.274;12.292;2022-08-27T12:20:10;26.60;99.90
1800;DHT22;919;48.274;12.292;2022-08-27T12:22:59;26.40;99.90
1800;DHT22;919;48.274;12.292;2022-08-27T12:25:54;26.10;99.90
1800;DHT22;919;48.274;12.292;2022-08-27T12:28:23;26.00;99.90
1800;DHT22;919;48.274;12.292;2022-08-27T12:30:51;25.90;99.90
1800;DHT22;919;48.274;12.292;2022-08-27T12:33:22;25.80;99.90
1800;DHT22;919;48.274;12.292;2022-08-27T12:35:53;25.80;99.90
1800;DHT22;919;48.274;12.292;2022-08-27T12:38:36;25.80;99.90
1800;DHT22;919;48.274;12.292;2022-08-27T12:41:07;25.80;99.90
1800;DHT22;919;48.274;12.292;2022-08-27T12:43:35;25.80;99.90
1800;DHT22;919;48.274;12.292;2022-08-27T12:46:07;25.60;99.90
1800;DHT22;919;48.274;12.292;2022-08-27T12:48:43;25.40;99.90
1800;DHT22;919;48.274;12.292;2022-08-27T12:51:13;25.40;99.90
1800;DHT22;919;48.274;12.292;2022-08-27T12:53:43;25.40;99.90
1800;DHT22;919;48.274;12.292;2022-08-27T13:02:10;25.40;99.90
1800;DHT22;919;48.274;12.292;2022-08-27T13:04:41;25.30;99.90
1800;DHT22;919;48.274;12.292;2022-08-27T13:07:08;25.40;99.90
1800;DHT22;919;48.274;12.292;2022-08-27T13:09:38;25.30;99.90
1800;DHT22;919;48.274;12.292;2022-08-27T13:12:14;25.40;99.90
1800;DHT22;919;48.274;12.292;2022-08-27T13:14:42;25.40;99.90
1800;DHT22;919;48.274;12.292;2022-08-27T13:17:10;25.50;99.90
1800;DHT22;919;48.274;12.292;2022-08-27T13:19:45;25.60;99.90
1800;DHT22;919;48.274;12.292;2022-08-27T13:22:21;25.70;99.90
1800;DHT22;919;48.274;12.292;2022-08-27T13:24:52;25.70;99.90
1800;DHT22;919;48.274;12.292;2022-08-27T13:27:23;25.90;99.90
1800;DHT22;919;48.274;12.292;2022-08-27T13:29:50;25.90;99.90
1800;DHT22;919;48.274;12.292;2022-08-27T13:32:17;26.10;99.90
1800;DHT22;919;48.274;12.292;2022-08-27T13:34:45;26.20;99.90
1800;DHT22;919;48.274;12.292;2022-08-27T13:37:21;26.30;99.90
1800;DHT22;919;48.274;12.292;2022-08-27T13:39:53;26.40;99.90
1800;DHT22;919;48.274;12.292;2022-08-27T13:42:20;26.60;99.90
1800;DHT22;919;48.274;12.292;2022-08-27T13:44:50;26.80;99.90
1800;DHT22;919;48.274;12.292;2022-08-27T13:47:21;26.90;99.90
1800;DHT22;919;48.274;12.292;2022-08-27T13:49:48;27.00;99.90
1800;DHT22;919;48.274;12.292;2022-08-27T13:52:23;27.10;99.90
1800;DHT22;919;48.274;12.292;2022-08-27T13:55:00;27.10;99.90
1800;DHT22;919;48.274;12.292;2022-08-27T13:57:39;27.30;99.90
1800;DHT22;919;48.274;12.292;2022-08-27T14:00:10;27.60;99.90
1800;DHT22;919;48.274;12.292;2022-08-27T14:02:39;28.00;99.90
1800;DHT22;919;48.274;12.292;2022-08-27T14:05:09;28.10;99.90
1800;DHT22;919;48.274;12.292;2022-08-27T14:07:41;28.10;99.90
1800;DHT22;919;48.274;12.292;2022-08-27T14:10:29;28.00;99.90
1800;DHT22;919;48.274;12.292;2022-08-27T14:12:58;27.90;99.90
1800;DHT22;919;48.274;12.292;2022-08-27T14:15:30;27.80;99.90
1800;DHT22;919;48.274;12.292;2022-08-27T14:17:58;27.90;99.90
1800;DHT22;919;48.274;12.292;2022-08-27T14:20:25;28.10;99.90
1800;DHT22;919;48.274;12.292;2022-08-27T14:22:52;28.20;99.90
1800;DHT22;919;48.274;12.292;2022-08-27T14:25:21;28.00;99.90
1800;DHT22;919;48.274;12.292;2022-08-27T14:27:50;27.70;99.90
1800;DHT22;919;48.274;12.292;2022-08-27T14:30:19;27.80;99.90
1800;DHT22;919;48.274;12.292;2022-08-27T14:32:46;27.80;99.90
1800;DHT22;919;48.274;12.292;2022-08-27T14:35:14;27.70;99.90
1800;DHT22;919;48.274;12.292;2022-08-27T14:37:42;27.60;99.90
1800;DHT22;919;48.274;12.292;2022-08-27T14:40:11;27.50;99.90
1800;DHT22;919;48.274;12.292;2022-08-27T14:42:39;27.70;99.90
1800;DHT22;919;48.274;12.292;2022-08-27T14:45:07;27.70;99.90
1800;DHT22;919;48.274;12.292;2022-08-27T14:47:36;27.70;99.90
1800;DHT22;919;48.274;12.292;2022-08-27T14:50:06;27.80;99.90
1800;DHT22;919;48.274;12.292;2022-08-27T14:52:34;27.80;99.90
1800;DHT22;919;48.274;12.292;2022-08-27T14:55:00;28.00;99.90
1800;DHT22;919;48.274;12.292;2022-08-27T14:57:27;28.00;99.90
1800;DHT22;919;48.274;12.292;2022-08-27T14:59:55;28.10;99.90
1800;DHT22;919;48.274;12.292;2022-08-27T15:02:22;28.20;99.90
1800;DHT22;919;48.274;12.292;2022-08-27T15:04:49;28.20;99.90
1800;DHT22;919;48.274;12.292;2022-08-27T15:07:16;28.30;99.90
1800;DHT22;919;48.274;12.292;2022-08-27T15:09:44;28.30;99.90
1800;DHT22;919;48.274;12.292;2022-08-27T15:12:11;28.20;99.90
1800;DHT22;919;48.274;12.292;2022-08-27T15:14:39;28.20;99.90
1800;DHT22;919;48.274;12.292;2022-08-27T15:17:09;28.10;99.90
1800;DHT22;919;48.274;12.292;2022-08-27T15:19:36;28.10;99.90
1800;DHT22;919;48.274;12.292;2022-08-27T15:22:09;27.90;99.90
1800;DHT22;919;48.274;12.292;2022-08-27T15:24:41;27.80;99.90
1800;DHT22;919;48.274;12.292;2022-08-27T15:27:09;27.80;99.90
1800;DHT22;919;48.274;12.292;2022-08-27T15:29:36;27.90;99.90
1800;DHT22;919;48.274;12.292;2022-08-27T15:32:04;27.90;99.90
1800;DHT22;919;48.274;12.292;2022-08-27T15:34:33;28.00;99.90
1800;DHT22;919;48.274;12.292;2022-08-27T15:36:59;27.80;99.90
1800;DHT22;919;48.274;12.292;2022-08-27T15:39:27;27.80;99.90
1800;DHT22;919;48.274;12.292;2022-08-27T15:41:54;27.90;99.90
1800;DHT22;919;48.274;12.292;2022-08-27T15:44:21;27.90;99.90
1800;DHT22;919;48.274;12.292;2022-08-27T15:46:47;28.10;99.90
1800;DHT22;919;48.274;12.292;2022-08-27T15:49:15;28.10;99.90
1800;DHT22;919;48.274;12.292;2022-08-27T15:51:43;28.20;99.90
1800;DHT22;919;48.274;12.292;2022-08-27T15:54:10;28.20;99.90
1800;DHT22;919;48.274;12.292;2022-08-27T15:56:37;28.10;99.90
1800;DHT22;919;48.274;12.292;2022-08-27T15:59:04;27.90;99.90
1800;DHT22;919;48.274;12.292;2022-08-27T16:01:34;27.80;99.90
1800;DHT22;919;48.274;12.292;2022-08-27T16:04:01;27.80;99.90
1800;DHT22;919;48.274;12.292;2022-08-27T16:06:29;27.70;99.90
1800;DHT22;919;48.274;12.292;2022-08-27T16:08:58;27.70;99.90
1800;DHT22;919;48.274;12.292;2022-08-27T16:11:24;27.40;99.90
1800;DHT22;919;48.274;12.292;2022-08-27T16:13:52;27.30;99.90
1800;DHT22;919;48.274;12.292;2022-08-27T16:16:29;27.20;99.90
1800;DHT22;919;48.274;12.292;2022-08-27T16:18:58;27.20;99.90
1800;DHT22;919;48.274;12.292;2022-08-27T16:21:26;27.30;99.90
1800;DHT22;919;48.274;12.292;2022-08-27T16:23:53;27.20;99.90
1800;DHT22;919;48.274;12.292;2022-08-27T16:26:21;27.40;99.90